createdAt,value
2023-02-11T00:03:30.380Z,55.45
2023-02-11T00:08:32.765Z,55.74
2023-02-11T00:13:36.154Z,55.59
2023-02-11T00:18:38.822Z,56.50
2023-02-11T00:23:41.534Z,56.09
2023-02-11T00:28:45.458Z,56.79
2023-02-11T00:33:48.628Z,56.92
2023-02-11T00:38:53.895Z,56.22
2023-02-11T00:43:57.139Z,57.36
2023-02-11T00:49:00.094Z,58.01
2023-02-11T00:54:03.369Z,56.32
2023-02-11T00:59:05.894Z,56.52
2023-02-11T01:04:08.668Z,58.27
2023-02-11T01:09:11.606Z,58.56
2023-02-11T01:14:14.782Z,58.30
2023-02-11T01:19:17.832Z,58.29
2023-02-11T01:24:21.640Z,57.16
2023-02-11T01:29:24.928Z,57.32
2023-02-11T01:34:30.114Z,57.16
2023-02-11T01:39:35.189Z,58.37
2023-02-11T01:44:40.970Z,58.00
2023-02-11T01:49:48.054Z,58.11
2023-02-11T01:55:12.928Z,58.31
2023-02-11T02:00:37.343Z,57.90
2023-02-11T02:05:45.145Z,58.16
2023-02-11T02:10:50.360Z,58.28
2023-02-11T02:15:56.994Z,58.08
2023-02-11T02:21:25.381Z,59.71
2023-02-11T02:26:34.145Z,59.31
2023-02-11T02:31:42.444Z,57.84
2023-02-11T02:36:56.337Z,57.36
2023-02-11T02:42:00.170Z,57.82
2023-02-11T02:47:03.186Z,57.59
2023-02-11T02:52:29.333Z,58.10
2023-02-11T02:57:41.330Z,59.06
2023-02-11T03:03:03.779Z,58.01
2023-02-11T03:08:13.346Z,57.80
2023-02-11T03:13:18.279Z,57.50
2023-02-11T03:18:26.558Z,56.79
2023-02-11T03:23:36.260Z,56.49
2023-02-11T03:29:07.915Z,57.23
2023-02-11T03:34:36.712Z,57.31
2023-02-11T03:39:45.978Z,55.96
2023-02-11T03:44:54.595Z,56.11
2023-02-11T03:49:59.825Z,54.82
2023-02-11T03:55:10.751Z,55.52
2023-02-11T04:00:14.331Z,55.49
2023-02-11T04:05:17.009Z,56.74
2023-02-11T04:10:20.934Z,56.53
2023-02-11T04:15:23.791Z,56.46
2023-02-11T04:20:26.712Z,56.12
2023-02-11T04:25:29.433Z,55.09
2023-02-11T04:30:32.353Z,56.02
2023-02-11T04:35:35.203Z,56.97
2023-02-11T04:40:38.938Z,56.05
2023-02-11T04:45:41.600Z,56.08
2023-02-11T04:50:43.916Z,55.89
2023-02-11T04:55:51.386Z,56.16
2023-02-11T05:00:54.564Z,56.15
2023-02-11T05:05:57.538Z,55.50
2023-02-11T05:11:02.752Z,55.79
2023-02-11T05:16:06.551Z,55.91
2023-02-11T05:21:15.602Z,57.17
2023-02-11T05:26:20.455Z,56.53
2023-02-11T05:31:23.194Z,57.13
2023-02-11T05:36:26.649Z,56.56
2023-02-11T05:41:30.506Z,56.29
2023-02-11T05:46:33.440Z,56.98
2023-02-11T05:51:35.825Z,55.85
2023-02-11T05:56:39.256Z,57.23
2023-02-11T06:01:42.875Z,54.10
2023-02-11T06:06:45.217Z,53.24
2023-02-11T06:11:48.158Z,52.95
2023-02-11T06:16:51.103Z,50.94
2023-02-11T06:21:53.439Z,49.23
2023-02-11T06:26:56.905Z,47.75
2023-02-11T06:31:59.355Z,50.07
2023-02-11T06:37:01.989Z,49.89
2023-02-11T06:42:06.983Z,49.28
2023-02-11T06:47:11.359Z,49.09
2023-02-11T06:52:13.766Z,50.36
2023-02-11T06:57:17.179Z,49.85
2023-02-11T07:02:21.105Z,48.88
2023-02-11T07:07:24.351Z,46.51
2023-02-11T07:12:27.277Z,45.75
2023-02-11T07:17:30.291Z,46.48
2023-02-11T07:22:34.868Z,46.80
2023-02-11T07:27:37.593Z,48.71
2023-02-11T07:32:39.901Z,48.48
2023-02-11T07:37:44.378Z,49.80
2023-02-11T07:42:46.771Z,48.95
2023-02-11T07:47:50.125Z,49.49
2023-02-11T07:52:52.448Z,50.76
2023-02-11T07:57:55.328Z,50.44
2023-02-11T08:02:58.579Z,50.73
2023-02-11T08:08:00.927Z,49.77
2023-02-11T08:13:03.247Z,50.45
2023-02-11T08:18:06.973Z,49.05
2023-02-11T08:23:09.398Z,49.49
2023-02-11T08:28:12.892Z,49.77
2023-02-11T08:33:15.304Z,49.78
2023-02-11T08:38:18.668Z,49.01
2023-02-11T08:43:21.651Z,49.43
2023-02-11T08:48:25.570Z,49.29
2023-02-11T08:53:28.381Z,47.81
2023-02-11T08:58:31.627Z,49.74
2023-02-11T09:03:34.412Z,49.10
2023-02-11T09:08:40.450Z,48.17
2023-02-11T09:13:44.488Z,48.26
2023-02-11T09:18:48.032Z,48.20
2023-02-11T09:23:50.986Z,49.36
2023-02-11T09:28:54.089Z,47.65
2023-02-11T09:34:00.584Z,47.77
2023-02-11T09:39:05.496Z,48.32
2023-02-11T09:44:18.480Z,47.54
2023-02-11T09:49:27.312Z,48.14
2023-02-11T09:54:56.252Z,47.69
2023-02-11T09:59:58.584Z,48.59
2023-02-11T10:05:29.384Z,47.93
2023-02-11T10:10:58.512Z,48.29
2023-02-11T10:16:14.208Z,48.48
2023-02-11T10:21:27.048Z,47.85
2023-02-11T10:26:32.736Z,48.33
2023-02-11T10:31:42.633Z,48.63
2023-02-11T10:36:45.813Z,49.74
2023-02-11T10:42:02.520Z,48.95
2023-02-11T10:47:28.838Z,48.74
2023-02-11T10:52:32.617Z,48.54
2023-02-11T10:57:45.479Z,48.27
2023-02-11T11:02:56.367Z,48.63
2023-02-11T11:08:10.133Z,48.81
2023-02-11T11:13:38.173Z,47.45
2023-02-11T11:18:44.627Z,47.41
2023-02-11T11:23:59.376Z,47.58
2023-02-11T11:29:10.814Z,47.70
2023-02-11T11:34:34.365Z,46.90
2023-02-11T11:39:36.905Z,46.86
2023-02-11T11:44:43.098Z,47.12
2023-02-11T11:50:04.284Z,47.97
2023-02-11T11:55:25.544Z,47.27
2023-02-11T12:00:36.544Z,48.13
2023-02-11T12:06:03.689Z,47.55
2023-02-11T12:11:30.500Z,46.95
2023-02-11T12:17:18.544Z,46.78
2023-02-11T12:23:00.449Z,46.54
2023-02-11T12:28:25.983Z,46.76
2023-02-11T12:33:59.330Z,47.88
2023-02-11T12:39:17.522Z,46.45
2023-02-11T12:45:09.452Z,47.22
2023-02-11T12:50:39.246Z,46.01
2023-02-11T12:55:46.642Z,46.24
2023-02-11T13:01:09.943Z,46.43
2023-02-11T13:06:17.998Z,46.73
2023-02-11T13:11:26.994Z,46.59
2023-02-11T13:16:43.240Z,47.56
2023-02-11T13:22:17.049Z,47.73
2023-02-11T13:27:44.160Z,47.57
2023-02-11T13:32:56.624Z,48.46
2023-02-11T13:38:05.597Z,47.92
2023-02-11T13:43:22.448Z,48.84
2023-02-11T13:48:32.759Z,49.03
2023-02-11T13:53:54.555Z,50.10
2023-02-11T13:58:59.642Z,49.84
2023-02-11T14:04:42.530Z,50.57
2023-02-11T14:09:45.712Z,51.11
2023-02-11T14:15:07.721Z,51.83
2023-02-11T14:20:34.928Z,51.02
2023-02-11T14:25:42.407Z,51.88
2023-02-11T14:31:11.265Z,52.03
2023-02-11T14:36:22.883Z,53.46
2023-02-11T14:41:35.610Z,54.12
2023-02-11T14:46:38.845Z,53.13
2023-02-11T14:51:41.839Z,54.08
2023-02-11T14:57:12.024Z,53.48
2023-02-11T15:02:22.944Z,54.07
2023-02-11T15:07:25.863Z,55.27
2023-02-11T15:12:29.032Z,54.88
2023-02-11T15:17:32.671Z,54.63
2023-02-11T15:22:37.162Z,55.04
2023-02-11T15:27:46.446Z,55.71
2023-02-11T15:32:51.050Z,55.22
2023-02-11T15:37:53.566Z,55.75
2023-02-11T15:43:09.453Z,57.08
2023-02-11T15:48:17.889Z,56.44
2023-02-11T15:53:23.408Z,56.02
2023-02-11T15:58:25.901Z,56.77
2023-02-11T16:03:33.123Z,57.05
2023-02-11T16:08:38.449Z,56.37
2023-02-11T16:13:47.915Z,57.52
2023-02-11T16:19:04.251Z,57.24
2023-02-11T16:24:08.605Z,58.52
2023-02-11T16:29:17.545Z,57.13
2023-02-11T16:34:24.010Z,57.46
2023-02-11T16:39:26.338Z,57.19
2023-02-11T16:44:29.722Z,57.94
2023-02-11T16:49:37.062Z,58.37
2023-02-11T16:54:39.306Z,58.31
2023-02-11T16:59:41.875Z,58.66
2023-02-11T17:04:44.777Z,58.00
2023-02-11T17:09:47.566Z,57.90
2023-02-11T17:14:50.166Z,57.78
2023-02-11T17:19:52.707Z,58.44
2023-02-11T17:24:57.338Z,58.93
2023-02-11T17:29:59.986Z,58.38
2023-02-11T17:35:02.799Z,58.89
2023-02-11T17:40:06.772Z,58.86
2023-02-11T17:45:09.888Z,58.87
2023-02-11T17:50:12.581Z,59.22
2023-02-11T17:55:18.165Z,58.42
2023-02-11T18:00:21.378Z,58.28
2023-02-11T18:05:26.122Z,58.64
2023-02-11T18:10:28.843Z,58.59
2023-02-11T18:15:33.381Z,57.97
2023-02-11T18:20:35.976Z,58.83
2023-02-11T18:25:42.139Z,57.81
2023-02-11T18:30:44.829Z,58.97
2023-02-11T18:35:49.470Z,58.36
2023-02-11T18:40:52.678Z,57.93
2023-02-11T18:45:55.227Z,58.02
2023-02-11T18:50:58.040Z,59.26
2023-02-11T18:56:01.513Z,58.55
2023-02-11T19:01:16.402Z,58.63
2023-02-11T19:06:25.783Z,59.19
2023-02-11T19:11:54.355Z,58.68
2023-02-11T19:16:58.905Z,60.04
2023-02-11T19:22:02.791Z,59.56
2023-02-11T19:27:05.878Z,59.69
2023-02-11T19:32:08.593Z,59.79
2023-02-11T19:37:14.196Z,60.15
2023-02-11T19:42:16.874Z,60.40
2023-02-11T19:47:20.337Z,60.20
2023-02-11T19:52:23.269Z,59.47
2023-02-11T19:57:25.531Z,60.14
2023-02-11T20:02:29.317Z,60.09
2023-02-11T20:07:31.714Z,60.72
2023-02-11T20:12:34.663Z,60.19
2023-02-11T20:17:37.541Z,58.97
2023-02-11T20:22:40.477Z,58.81
2023-02-11T20:27:42.974Z,59.49
2023-02-11T20:32:45.445Z,60.15
2023-02-11T20:37:48.738Z,58.20
2023-02-11T20:42:51.811Z,57.39
2023-02-11T20:47:55.340Z,57.90
2023-02-11T20:52:57.630Z,57.23
2023-02-11T20:58:00.545Z,58.10
2023-02-11T21:03:05.536Z,57.80
2023-02-11T21:08:07.927Z,58.24
2023-02-11T21:13:10.291Z,59.03
2023-02-11T21:18:14.092Z,58.31
2023-02-11T21:23:17.986Z,56.85
2023-02-11T21:28:26.746Z,56.64
2023-02-11T21:33:30.568Z,55.74
2023-02-11T21:38:35.005Z,56.55
2023-02-11T21:43:37.428Z,57.23
2023-02-11T21:48:40.127Z,57.01
2023-02-11T21:53:43.531Z,56.94
2023-02-11T21:58:46.590Z,56.49
2023-02-11T22:03:50.558Z,56.33
2023-02-11T22:08:55.234Z,57.71
2023-02-11T22:13:58.102Z,57.84
2023-02-11T22:19:03.095Z,56.09
2023-02-11T22:24:07.031Z,57.25
2023-02-11T22:29:09.589Z,57.89
2023-02-11T22:34:11.926Z,57.93
2023-02-11T22:39:18.571Z,58.45
2023-02-11T22:44:21.768Z,57.46
2023-02-11T22:49:25.356Z,59.49
2023-02-11T22:54:27.911Z,58.36
2023-02-11T22:59:30.301Z,59.19
2023-02-11T23:04:33.670Z,58.92
2023-02-11T23:09:36.142Z,58.22
2023-02-11T23:14:38.925Z,58.31
2023-02-11T23:19:42.084Z,58.90
2023-02-11T23:24:44.943Z,58.82
2023-02-11T23:29:47.908Z,59.17
2023-02-11T23:34:51.800Z,57.88
2023-02-11T23:39:54.129Z,57.75
2023-02-11T23:44:57.563Z,57.82
2023-02-11T23:50:01.190Z,57.66
2023-02-11T23:55:06.490Z,57.25
